createdAt,value
2023-06-29T00:00:28.865Z,16.23
2023-06-29T00:01:28.905Z,16.23
2023-06-29T00:02:28.870Z,16.23
2023-06-29T00:03:28.837Z,16.21
2023-06-29T00:04:28.826Z,16.23
2023-06-29T00:05:28.787Z,16.23
2023-06-29T00:06:28.814Z,16.17
2023-06-29T00:07:28.820Z,16.15
2023-06-29T00:08:28.794Z,16.12
2023-06-29T00:09:28.788Z,16.08
2023-06-29T00:10:28.700Z,16.08
2023-06-29T00:11:28.690Z,16.04
2023-06-29T00:12:28.757Z,16.01
2023-06-29T00:13:28.686Z,15.94
2023-06-29T00:14:28.698Z,15.92
2023-06-29T00:15:28.674Z,15.90
2023-06-29T00:16:28.753Z,15.89
2023-06-29T00:17:28.710Z,15.84
2023-06-29T00:18:28.616Z,15.84
2023-06-29T00:19:28.682Z,15.83
2023-06-29T00:20:28.614Z,15.80
2023-06-29T00:21:28.590Z,15.80
2023-06-29T00:22:28.632Z,15.80
2023-06-29T00:23:28.570Z,15.78
2023-06-29T00:24:28.591Z,15.72
2023-06-29T00:25:28.598Z,15.72
2023-06-29T00:26:28.542Z,15.69
2023-06-29T00:27:28.524Z,15.71
2023-06-29T00:28:28.556Z,15.71
2023-06-29T00:29:28.495Z,15.69
2023-06-29T00:30:28.500Z,15.67
2023-06-29T00:31:28.518Z,15.64
2023-06-29T00:32:28.512Z,15.59
2023-06-29T00:33:28.514Z,15.56
2023-06-29T00:34:28.439Z,15.54
2023-06-29T00:35:28.426Z,15.53
2023-06-29T00:36:28.419Z,15.50
2023-06-29T00:37:28.429Z,15.50
2023-06-29T00:38:28.448Z,15.47
2023-06-29T00:39:28.437Z,15.44
2023-06-29T00:40:28.389Z,15.43
2023-06-29T00:41:28.368Z,15.43
2023-06-29T00:42:28.370Z,15.46
2023-06-29T00:43:28.361Z,15.44
2023-06-29T00:44:28.401Z,15.43
2023-06-29T00:45:28.341Z,15.39
2023-06-29T00:46:28.342Z,15.38
2023-06-29T00:47:28.321Z,15.38
2023-06-29T00:48:28.272Z,15.39
2023-06-29T00:49:28.294Z,15.41
2023-06-29T00:50:28.311Z,15.43
2023-06-29T00:51:28.275Z,15.44
2023-06-29T00:52:28.259Z,15.46
2023-06-29T00:53:28.233Z,15.46
2023-06-29T00:54:28.248Z,15.49
2023-06-29T00:55:28.215Z,15.47
2023-06-29T00:56:28.249Z,15.49
2023-06-29T00:57:28.198Z,15.47
2023-06-29T00:58:28.187Z,15.50
2023-06-29T00:59:28.200Z,15.51
2023-06-29T01:00:28.173Z,15.49
2023-06-29T01:01:28.201Z,15.47
2023-06-29T01:02:28.252Z,15.47
2023-06-29T01:03:28.203Z,15.44
2023-06-29T01:04:28.133Z,15.41
2023-06-29T01:05:28.119Z,15.38
2023-06-29T01:06:28.085Z,15.34
2023-06-29T01:07:28.134Z,15.29
2023-06-29T01:08:28.082Z,15.25
2023-06-29T01:09:28.044Z,15.23
2023-06-29T01:10:28.089Z,15.23
2023-06-29T01:11:28.041Z,15.21
2023-06-29T01:12:28.024Z,15.19
2023-06-29T01:13:28.051Z,15.17
2023-06-29T01:14:28.016Z,15.14
2023-06-29T01:15:28.011Z,15.16
2023-06-29T01:16:27.992Z,15.09
2023-06-29T01:17:28.042Z,15.07
2023-06-29T01:18:27.964Z,15.01
2023-06-29T01:19:27.960Z,14.98
2023-06-29T01:20:27.920Z,14.99
2023-06-29T01:21:27.930Z,14.96
2023-06-29T01:22:27.976Z,14.94
2023-06-29T01:23:27.899Z,14.91
2023-06-29T01:24:27.891Z,14.89
2023-06-29T01:25:27.910Z,14.88
2023-06-29T01:26:27.871Z,14.84
2023-06-29T01:27:27.871Z,14.86
2023-06-29T01:28:27.846Z,14.83
2023-06-29T01:29:27.879Z,14.83
2023-06-29T01:30:27.833Z,14.78
2023-06-29T01:31:27.845Z,14.77
2023-06-29T01:32:27.844Z,14.78
2023-06-29T01:33:27.782Z,14.77
2023-06-29T01:34:27.771Z,14.77
2023-06-29T01:35:27.824Z,14.73
2023-06-29T01:36:27.787Z,14.73
2023-06-29T01:37:27.759Z,14.70
2023-06-29T01:38:27.717Z,14.69
2023-06-29T01:39:27.723Z,14.64
2023-06-29T01:40:27.754Z,14.61
2023-06-29T01:41:27.704Z,14.60
2023-06-29T01:42:27.666Z,14.61
2023-06-29T01:43:27.662Z,14.61
2023-06-29T01:44:27.655Z,14.62
2023-06-29T01:45:27.676Z,14.65
2023-06-29T01:46:27.761Z,14.68
2023-06-29T01:47:27.682Z,14.72
2023-06-29T01:48:27.639Z,14.72
2023-06-29T01:49:27.596Z,14.69
2023-06-29T01:50:27.588Z,14.69
2023-06-29T01:51:27.653Z,14.70
2023-06-29T01:52:27.551Z,14.70
2023-06-29T01:53:27.910Z,14.69
2023-06-29T01:54:27.581Z,14.65
2023-06-29T01:55:27.532Z,14.61
2023-06-29T01:56:27.525Z,14.55
2023-06-29T01:57:27.559Z,14.54
2023-06-29T01:58:27.490Z,14.51
2023-06-29T01:59:27.469Z,14.51
2023-06-29T02:00:27.459Z,14.51
2023-06-29T02:01:27.525Z,14.50
2023-06-29T02:02:27.563Z,14.47
2023-06-29T02:03:27.504Z,14.51
2023-06-29T02:04:27.440Z,14.51
2023-06-29T02:05:27.429Z,14.51
2023-06-29T02:06:27.418Z,14.52
2023-06-29T02:07:27.603Z,14.52
2023-06-29T02:08:27.378Z,14.50
2023-06-29T02:09:27.392Z,14.46
2023-06-29T02:10:27.342Z,14.42
2023-06-29T02:11:27.362Z,14.40
2023-06-29T02:12:27.357Z,14.39
2023-06-29T02:13:27.359Z,14.39
2023-06-29T02:14:27.343Z,14.37
2023-06-29T02:15:27.306Z,14.37
2023-06-29T02:16:27.370Z,14.39
2023-06-29T02:17:27.331Z,14.40
2023-06-29T02:18:27.278Z,14.40
2023-06-29T02:19:27.300Z,14.40
2023-06-29T02:20:27.234Z,14.36
2023-06-29T02:21:27.243Z,14.37
2023-06-29T02:22:27.242Z,14.36
2023-06-29T02:23:27.212Z,14.32
2023-06-29T02:24:27.232Z,14.27
2023-06-29T02:25:27.178Z,14.20
2023-06-29T02:26:27.207Z,14.17
2023-06-29T02:27:27.203Z,14.17
2023-06-29T02:28:27.184Z,14.17
2023-06-29T02:29:27.153Z,14.18
2023-06-29T02:30:27.165Z,14.18
2023-06-29T02:31:27.179Z,14.18
2023-06-29T02:32:27.116Z,14.18
2023-06-29T02:33:27.126Z,14.21
2023-06-29T02:34:27.062Z,14.24
2023-06-29T02:35:27.088Z,14.22
2023-06-29T02:36:27.058Z,14.20
2023-06-29T02:37:27.052Z,14.22
2023-06-29T02:38:27.074Z,14.22
2023-06-29T02:39:27.051Z,14.21
2023-06-29T02:40:27.006Z,14.21
2023-06-29T02:41:27.008Z,14.18
2023-06-29T02:42:26.987Z,14.17
2023-06-29T02:43:26.974Z,14.14
2023-06-29T02:44:27.002Z,14.10
2023-06-29T02:45:26.953Z,14.07
2023-06-29T02:46:27.009Z,14.03
2023-06-29T02:47:26.964Z,14.03
2023-06-29T02:48:26.930Z,14.02
2023-06-29T02:49:26.930Z,14.04
2023-06-29T02:50:26.919Z,14.04
2023-06-29T02:51:26.903Z,14.02
2023-06-29T02:52:26.882Z,14.03
2023-06-29T02:53:26.871Z,14.03
2023-06-29T02:54:26.902Z,14.02
2023-06-29T02:55:26.866Z,14.02
2023-06-29T02:56:26.855Z,13.99
2023-06-29T02:57:26.821Z,13.91
2023-06-29T02:58:26.829Z,13.89
2023-06-29T02:59:26.798Z,13.89
2023-06-29T03:00:26.805Z,13.89
2023-06-29T03:01:26.850Z,13.88
2023-06-29T03:02:26.862Z,13.92
2023-06-29T03:03:26.827Z,13.95
2023-06-29T03:04:26.723Z,13.96
2023-06-29T03:05:26.800Z,13.96
2023-06-29T03:06:26.718Z,13.89
2023-06-29T03:07:26.736Z,13.88
2023-06-29T03:08:26.693Z,13.88
2023-06-29T03:09:26.725Z,13.88
2023-06-29T03:10:26.707Z,13.87
2023-06-29T03:11:26.705Z,13.87
2023-06-29T03:12:26.661Z,13.87
2023-06-29T03:13:26.628Z,13.88
2023-06-29T03:14:26.626Z,13.88
2023-06-29T03:15:26.640Z,13.87
2023-06-29T03:16:26.689Z,13.87
2023-06-29T03:17:26.589Z,13.87
2023-06-29T03:18:26.601Z,13.84
2023-06-29T03:19:26.560Z,13.79
2023-06-29T03:20:26.582Z,13.78
2023-06-29T03:21:26.525Z,13.77
2023-06-29T03:22:26.556Z,13.78
2023-06-29T03:23:26.528Z,13.79
2023-06-29T03:24:26.504Z,13.81
2023-06-29T03:25:26.518Z,13.82
2023-06-29T03:26:26.495Z,13.82
2023-06-29T03:27:26.474Z,13.81
2023-06-29T03:28:26.506Z,13.78
2023-06-29T03:29:26.462Z,13.81
2023-06-29T03:30:26.494Z,13.81
2023-06-29T03:31:26.445Z,13.82
2023-06-29T03:32:26.427Z,13.84
2023-06-29T03:33:26.442Z,13.82
2023-06-29T03:34:26.437Z,13.81
2023-06-29T03:35:26.391Z,13.81
2023-06-29T03:36:26.399Z,13.81
2023-06-29T03:37:26.374Z,13.79
2023-06-29T03:38:26.361Z,13.81
2023-06-29T03:39:26.353Z,13.81
2023-06-29T03:40:26.376Z,13.81
2023-06-29T03:41:26.311Z,13.81
2023-06-29T03:42:26.325Z,13.81
2023-06-29T03:43:26.306Z,13.81
2023-06-29T03:44:26.298Z,13.78
2023-06-29T03:45:26.541Z,13.78
2023-06-29T03:46:26.261Z,13.77
2023-06-29T03:47:26.321Z,13.78
2023-06-29T03:48:26.318Z,13.77
2023-06-29T03:49:26.229Z,13.75
2023-06-29T03:50:26.207Z,13.71
2023-06-29T03:51:26.249Z,13.73
2023-06-29T03:52:26.174Z,13.77
2023-06-29T03:53:26.195Z,13.81
2023-06-29T03:54:26.216Z,13.82
2023-06-29T03:55:26.171Z,13.87
2023-06-29T03:56:26.233Z,13.87
2023-06-29T03:57:26.124Z,13.89
2023-06-29T03:58:29.467Z,13.89
2023-06-29T03:59:26.114Z,13.89
2023-06-29T04:00:26.093Z,13.89
2023-06-29T04:01:26.118Z,13.89
2023-06-29T04:02:26.365Z,13.87
2023-06-29T04:03:26.179Z,13.85
2023-06-29T04:04:26.051Z,13.87
2023-06-29T04:05:26.045Z,13.87
2023-06-29T04:06:26.058Z,13.87
2023-06-29T04:07:26.110Z,13.91
2023-06-29T04:08:26.005Z,13.99
2023-06-29T04:09:25.990Z,14.06
2023-06-29T04:10:26.021Z,14.09
2023-06-29T04:11:25.962Z,14.10
2023-06-29T04:12:25.971Z,14.10
2023-06-29T04:13:25.997Z,14.09
2023-06-29T04:14:25.950Z,14.10
2023-06-29T04:15:25.996Z,14.14
2023-06-29T04:16:25.959Z,14.17
2023-06-29T04:17:25.936Z,14.21
2023-06-29T04:18:25.888Z,14.27
2023-06-29T04:19:25.910Z,14.29
2023-06-29T04:20:25.894Z,14.32
2023-06-29T04:21:25.885Z,14.33
2023-06-29T04:22:25.847Z,14.33
2023-06-29T04:23:25.851Z,14.33
2023-06-29T04:24:25.852Z,14.35
2023-06-29T04:25:25.824Z,14.39
2023-06-29T04:26:25.815Z,14.42
2023-06-29T04:27:25.820Z,14.43
2023-06-29T04:28:25.772Z,14.45
2023-06-29T04:29:25.786Z,14.47
2023-06-29T04:30:25.808Z,14.51
2023-06-29T04:31:25.728Z,14.55
2023-06-29T04:32:25.795Z,14.60
2023-06-29T04:33:25.728Z,14.65
2023-06-29T04:34:25.703Z,14.72
2023-06-29T04:35:25.719Z,14.70
2023-06-29T04:36:25.730Z,14.69
2023-06-29T04:37:25.733Z,14.69
2023-06-29T04:38:25.654Z,14.72
2023-06-29T04:39:25.639Z,14.73
2023-06-29T04:40:25.661Z,14.78
2023-06-29T04:41:25.684Z,14.80
2023-06-29T04:42:25.625Z,14.83
2023-06-29T04:43:25.607Z,14.81
2023-06-29T04:44:25.588Z,14.78
2023-06-29T04:45:25.599Z,14.81
2023-06-29T04:46:25.699Z,14.81
2023-06-29T04:47:25.678Z,14.89
2023-06-29T04:48:25.588Z,14.95
2023-06-29T04:49:25.566Z,14.99
2023-06-29T04:50:25.570Z,14.99
2023-06-29T04:51:25.594Z,15.03
2023-06-29T04:52:25.509Z,15.07
2023-06-29T04:53:25.517Z,15.07
2023-06-29T04:54:25.495Z,15.10
2023-06-29T04:55:25.496Z,15.14
2023-06-29T04:56:25.477Z,15.20
2023-06-29T04:57:27.997Z,15.25
2023-06-29T04:58:25.436Z,15.28
2023-06-29T04:59:25.460Z,15.31
2023-06-29T05:00:25.438Z,15.31
2023-06-29T05:01:25.427Z,15.34
2023-06-29T05:02:25.461Z,15.35
2023-06-29T05:03:25.663Z,15.34
2023-06-29T05:04:25.375Z,15.34
2023-06-29T05:05:25.378Z,15.34
2023-06-29T05:06:25.377Z,15.38
2023-06-29T05:07:25.421Z,15.44
2023-06-29T05:08:25.309Z,15.49
2023-06-29T05:09:25.298Z,15.54
2023-06-29T05:10:25.289Z,15.59
2023-06-29T05:11:25.295Z,15.60
2023-06-29T05:12:25.325Z,15.64
2023-06-29T05:13:25.314Z,15.64
2023-06-29T05:14:25.282Z,15.62
2023-06-29T05:15:25.233Z,15.64
2023-06-29T05:16:25.241Z,15.71
2023-06-29T05:17:25.248Z,15.76
2023-06-29T05:18:25.291Z,15.76
2023-06-29T05:19:25.208Z,15.78
2023-06-29T05:20:25.224Z,15.82
2023-06-29T05:21:25.207Z,15.87
2023-06-29T05:22:25.170Z,15.92
2023-06-29T05:23:25.168Z,16.01
2023-06-29T05:24:25.135Z,16.05
2023-06-29T05:25:25.156Z,16.09
2023-06-29T05:26:25.226Z,16.08
2023-06-29T05:27:25.106Z,16.12
2023-06-29T05:28:25.142Z,16.23
2023-06-29T05:29:25.112Z,16.31
2023-06-29T05:30:25.132Z,16.39
2023-06-29T05:31:25.079Z,16.49
2023-06-29T05:32:25.163Z,16.50
2023-06-29T05:33:25.064Z,16.60
2023-06-29T05:34:25.027Z,16.64
2023-06-29T05:35:25.004Z,16.73
2023-06-29T05:36:25.041Z,16.83
2023-06-29T05:37:24.990Z,17.01
2023-06-29T05:38:25.020Z,17.21
2023-06-29T05:39:24.991Z,17.41
2023-06-29T05:40:24.953Z,17.62
2023-06-29T05:41:24.977Z,17.93
2023-06-29T05:42:24.972Z,18.35
2023-06-29T05:43:24.991Z,18.95
2023-06-29T05:44:25.222Z,19.91
2023-06-29T05:45:24.934Z,21.07
2023-06-29T05:46:24.908Z,22.17
2023-06-29T05:47:24.893Z,23.13
2023-06-29T05:48:24.864Z,24.00
2023-06-29T05:49:24.865Z,24.64
2023-06-29T05:50:24.866Z,24.78
2023-06-29T05:51:24.861Z,25.38
2023-06-29T05:52:24.850Z,25.99
2023-06-29T05:53:24.833Z,26.25
2023-06-29T05:54:24.811Z,26.77
2023-06-29T05:55:24.825Z,27.29
2023-06-29T05:56:24.797Z,27.82
2023-06-29T05:57:24.779Z,27.97
2023-06-29T05:58:24.782Z,28.21
2023-06-29T05:59:24.777Z,28.55
2023-06-29T06:00:24.778Z,28.68
2023-06-29T06:01:24.762Z,28.49
2023-06-29T06:02:24.751Z,28.55
2023-06-29T06:03:25.788Z,28.80
2023-06-29T06:04:24.712Z,29.11
2023-06-29T06:05:24.673Z,29.55
2023-06-29T06:06:24.705Z,29.73
2023-06-29T06:07:24.744Z,29.73
2023-06-29T06:08:24.671Z,29.76
2023-06-29T06:09:24.660Z,29.49
2023-06-29T06:10:24.633Z,29.78
2023-06-29T06:11:24.638Z,29.86
2023-06-29T06:12:24.610Z,29.92
2023-06-29T06:13:24.616Z,30.16
2023-06-29T06:14:24.601Z,30.46
2023-06-29T06:15:24.592Z,30.67
2023-06-29T06:16:24.585Z,31.10
2023-06-29T06:17:24.597Z,31.28
2023-06-29T06:18:24.550Z,31.65
2023-06-29T06:19:24.554Z,31.66
2023-06-29T06:20:24.564Z,31.73
2023-06-29T06:21:24.509Z,31.70
2023-06-29T06:22:24.496Z,31.44
2023-06-29T06:23:24.487Z,31.43
2023-06-29T06:24:24.476Z,31.29
2023-06-29T06:25:24.478Z,31.32
2023-06-29T06:26:24.490Z,31.50
2023-06-29T06:27:25.570Z,31.68
2023-06-29T06:28:24.438Z,31.44
2023-06-29T06:29:24.427Z,31.50
2023-06-29T06:30:24.440Z,31.84
2023-06-29T06:31:33.366Z,31.91
2023-06-29T06:32:25.492Z,32.03
2023-06-29T06:33:24.600Z,32.28
2023-06-29T06:34:24.383Z,32.66
2023-06-29T06:35:24.381Z,32.57
2023-06-29T06:36:24.466Z,32.44
2023-06-29T06:37:24.342Z,32.78
2023-06-29T06:38:27.372Z,33.06
2023-06-29T06:39:25.316Z,33.29
2023-06-29T06:40:24.319Z,32.51
2023-06-29T06:41:24.329Z,32.66
2023-06-29T06:42:24.299Z,32.96
2023-06-29T06:43:24.276Z,33.50
2023-06-29T06:44:24.293Z,33.90
2023-06-29T06:45:24.262Z,33.73
2023-06-29T06:46:24.282Z,34.19
2023-06-29T06:47:24.247Z,34.42
2023-06-29T06:48:24.202Z,33.87
2023-06-29T06:49:24.230Z,33.79
2023-06-29T06:50:24.212Z,34.40
2023-06-29T06:51:24.227Z,34.82
2023-06-29T06:52:24.247Z,35.53
2023-06-29T06:53:24.168Z,36.20
2023-06-29T06:54:24.167Z,36.39
2023-06-29T06:55:24.207Z,36.51
2023-06-29T06:56:24.164Z,35.90
2023-06-29T06:57:24.167Z,34.91
2023-06-29T06:58:24.119Z,34.08
2023-06-29T06:59:24.085Z,32.59
2023-06-29T07:00:24.098Z,31.43
2023-06-29T07:01:26.078Z,30.57
2023-06-29T07:02:24.223Z,29.90
2023-06-29T07:03:24.080Z,29.30
2023-06-29T07:04:24.073Z,28.88
2023-06-29T07:05:24.402Z,28.46
2023-06-29T07:06:24.029Z,28.15
2023-06-29T07:07:24.128Z,28.03
2023-06-29T07:08:24.033Z,27.97
2023-06-29T07:09:24.005Z,27.93
2023-06-29T07:10:24.033Z,27.90
2023-06-29T07:11:24.006Z,27.88
2023-06-29T07:12:23.996Z,27.79
2023-06-29T07:13:23.953Z,27.75
2023-06-29T07:14:23.945Z,27.67
2023-06-29T07:15:23.935Z,27.54
2023-06-29T07:16:24.002Z,27.54
2023-06-29T07:17:23.988Z,27.50
2023-06-29T07:18:23.910Z,27.37
2023-06-29T07:21:26.027Z,27.02
2023-06-29T07:24:23.884Z,26.81
2023-06-29T07:25:23.838Z,26.75
2023-06-29T07:26:23.806Z,26.76
2023-06-29T07:27:23.847Z,26.76
2023-06-29T07:28:23.853Z,26.80
2023-06-29T07:29:23.790Z,26.77
2023-06-29T07:30:23.861Z,26.76
2023-06-29T07:31:23.841Z,26.70
2023-06-29T07:32:23.803Z,26.60
2023-06-29T07:33:23.770Z,26.51
2023-06-29T07:34:23.789Z,26.52
2023-06-29T07:35:23.711Z,26.55
2023-06-29T07:36:23.700Z,26.51
2023-06-29T07:37:23.751Z,26.50
2023-06-29T07:38:23.708Z,26.52
2023-06-29T07:39:23.690Z,26.55
2023-06-29T07:40:23.695Z,26.57
2023-06-29T07:41:23.896Z,26.58
2023-06-29T07:42:37.965Z,26.67
2023-06-29T07:43:24.674Z,26.66
2023-06-29T07:44:23.657Z,26.69
2023-06-29T07:45:23.617Z,26.65
2023-06-29T07:46:23.601Z,26.70
2023-06-29T07:47:23.699Z,26.76
2023-06-29T07:48:23.704Z,26.85
2023-06-29T07:49:23.638Z,26.87
2023-06-29T07:50:23.594Z,26.89
2023-06-29T07:51:23.637Z,26.92
2023-06-29T07:52:23.545Z,26.91
2023-06-29T07:53:23.537Z,26.84
2023-06-29T07:54:23.580Z,26.81
2023-06-29T07:55:23.528Z,26.87
2023-06-29T07:56:23.574Z,26.94
2023-06-29T07:59:23.501Z,26.94
2023-06-29T08:00:23.561Z,27.04
2023-06-29T08:01:23.507Z,27.07
2023-06-29T08:02:23.445Z,27.03
2023-06-29T08:03:23.446Z,26.89
2023-06-29T08:07:23.509Z,27.10
2023-06-29T08:08:23.530Z,27.19
2023-06-29T08:09:23.408Z,27.24
2023-06-29T08:10:23.390Z,27.29
2023-06-29T08:11:23.326Z,27.51
2023-06-29T08:12:23.334Z,27.77
2023-06-29T08:13:23.361Z,27.97
2023-06-29T08:14:23.348Z,28.12
2023-06-29T08:15:23.322Z,28.25
2023-06-29T08:16:23.384Z,28.36
2023-06-29T08:17:23.322Z,28.56
2023-06-29T08:18:23.245Z,28.74
2023-06-29T08:19:23.359Z,28.89
2023-06-29T08:20:23.291Z,28.96
2023-06-29T08:21:23.226Z,29.09
2023-06-29T08:22:23.283Z,29.16
2023-06-29T08:23:23.192Z,29.31
2023-06-29T08:24:23.206Z,29.37
2023-06-29T08:25:23.234Z,29.43
2023-06-29T08:26:23.189Z,29.34
2023-06-29T08:27:23.185Z,29.53
2023-06-29T08:28:23.159Z,29.68
2023-06-29T08:29:23.145Z,29.85
2023-06-29T08:30:23.181Z,30.08
2023-06-29T08:31:23.163Z,30.27
2023-06-29T08:32:23.234Z,30.38
2023-06-29T08:33:23.231Z,30.42
2023-06-29T08:34:23.082Z,30.39
2023-06-29T08:35:23.136Z,30.54
2023-06-29T08:36:23.053Z,30.76
2023-06-29T08:37:23.048Z,31.12
2023-06-29T08:38:23.030Z,31.31
2023-06-29T08:39:23.027Z,31.47
2023-06-29T08:40:23.149Z,31.44
2023-06-29T08:41:23.061Z,31.81
2023-06-29T08:42:22.979Z,32.19
2023-06-29T08:43:22.993Z,32.52
2023-06-29T08:44:23.337Z,32.63
2023-06-29T08:45:22.975Z,32.57
2023-06-29T08:46:22.977Z,32.69
2023-06-29T08:47:22.990Z,32.78
2023-06-29T08:48:22.919Z,33.15
2023-06-29T08:49:22.908Z,33.54
2023-06-29T08:50:22.942Z,33.66
2023-06-29T08:51:22.904Z,33.91
2023-06-29T08:52:22.915Z,34.05
2023-06-29T08:53:23.057Z,34.10
2023-06-29T08:54:22.897Z,34.30
2023-06-29T08:55:22.852Z,34.50
2023-06-29T08:56:22.835Z,34.62
2023-06-29T08:57:22.875Z,34.69
2023-06-29T08:58:22.825Z,34.17
2023-06-29T08:59:22.906Z,33.60
2023-06-29T09:00:22.815Z,33.91
2023-06-29T09:01:22.836Z,34.08
2023-06-29T09:02:22.825Z,34.42
2023-06-29T09:03:23.132Z,34.80
2023-06-29T09:04:22.830Z,34.99
2023-06-29T09:05:22.771Z,35.44
2023-06-29T09:06:23.011Z,36.32
2023-06-29T09:07:24.867Z,36.25
2023-06-29T09:08:22.792Z,36.31
2023-06-29T09:09:23.799Z,36.59
2023-06-29T09:10:22.829Z,36.38
2023-06-29T09:11:22.713Z,36.34
2023-06-29T09:12:22.685Z,36.27
2023-06-29T09:13:22.670Z,36.28
2023-06-29T09:14:22.710Z,35.99
2023-06-29T09:15:22.710Z,35.87
2023-06-29T09:16:22.764Z,35.84
2023-06-29T09:17:22.861Z,36.16
2023-06-29T09:18:22.630Z,35.94
2023-06-29T09:19:22.657Z,35.87
2023-06-29T09:20:22.645Z,35.72
2023-06-29T09:21:22.619Z,35.71
2023-06-29T09:22:22.632Z,35.78
2023-06-29T09:23:22.597Z,35.78
2023-06-29T09:24:22.578Z,35.74
2023-06-29T09:25:32.870Z,35.50
2023-06-29T09:26:23.643Z,35.19
2023-06-29T09:27:22.593Z,34.56
2023-06-29T09:28:22.582Z,34.28
2023-06-29T09:29:22.530Z,34.31
2023-06-29T09:30:22.571Z,34.56
2023-06-29T09:31:22.606Z,34.17
2023-06-29T09:32:22.578Z,34.16
2023-06-29T09:33:22.539Z,34.59
2023-06-29T09:34:22.474Z,35.52
2023-06-29T09:35:22.508Z,35.96
2023-06-29T09:36:22.477Z,36.29
2023-06-29T09:37:22.502Z,35.87
2023-06-29T09:38:22.487Z,35.22
2023-06-29T09:39:22.439Z,34.92
2023-06-29T09:40:22.451Z,35.07
2023-06-29T09:41:22.410Z,35.28
2023-06-29T09:42:22.427Z,35.55
2023-06-29T09:43:22.445Z,35.48
2023-06-29T09:44:22.458Z,35.89
2023-06-29T09:45:22.446Z,36.51
2023-06-29T09:46:22.487Z,36.94
2023-06-29T09:49:22.479Z,38.28
2023-06-29T09:50:22.574Z,38.42
2023-06-29T09:51:22.706Z,38.84
2023-06-29T09:52:22.416Z,38.91
2023-06-29T09:53:22.501Z,39.11
2023-06-29T09:54:22.283Z,39.33
2023-06-29T09:55:22.268Z,39.17
2023-06-29T09:56:22.315Z,38.86
2023-06-29T09:57:22.254Z,38.93
2023-06-29T09:58:22.282Z,39.26
2023-06-29T09:59:22.312Z,39.75
2023-06-29T10:00:22.242Z,39.40
2023-06-29T10:01:22.286Z,39.23
2023-06-29T10:02:23.288Z,38.83
2023-06-29T10:03:22.276Z,38.56
2023-06-29T10:04:22.271Z,38.57
2023-06-29T10:05:22.221Z,38.50
2023-06-29T10:06:22.225Z,38.88
2023-06-29T10:07:23.355Z,39.77
2023-06-29T10:08:22.165Z,40.18
2023-06-29T10:09:22.150Z,40.18
2023-06-29T10:10:22.228Z,40.18
2023-06-29T10:11:22.223Z,40.16
2023-06-29T10:12:22.163Z,40.32
2023-06-29T10:13:22.158Z,40.38
2023-06-29T10:14:22.161Z,40.32
2023-06-29T10:15:22.163Z,40.25
2023-06-29T10:16:22.146Z,40.51
2023-06-29T10:17:22.203Z,40.26
2023-06-29T10:18:22.101Z,39.66
2023-06-29T10:19:22.121Z,38.98
2023-06-29T10:20:22.071Z,38.37
2023-06-29T10:21:22.114Z,38.42
2023-06-29T10:22:22.325Z,38.44
2023-06-29T10:23:22.800Z,39.07
2023-06-29T10:24:22.315Z,39.30
2023-06-29T10:25:22.040Z,39.06
2023-06-29T10:26:22.009Z,39.04
2023-06-29T10:27:22.021Z,39.11
2023-06-29T10:28:22.062Z,38.93
2023-06-29T10:29:23.245Z,38.52
2023-06-29T10:30:21.997Z,38.38
2023-06-29T10:31:21.993Z,38.59
2023-06-29T10:32:21.999Z,38.75
2023-06-29T10:33:21.967Z,38.46
2023-06-29T10:34:21.980Z,37.78
2023-06-29T10:35:23.513Z,37.75
2023-06-29T10:36:21.979Z,37.72
2023-06-29T10:37:21.991Z,37.60
2023-06-29T10:38:21.920Z,37.70
2023-06-29T10:39:21.928Z,37.81
2023-06-29T10:40:21.904Z,37.88
2023-06-29T10:41:21.947Z,37.97
2023-06-29T10:42:21.886Z,38.03
2023-06-29T10:43:21.907Z,38.23
2023-06-29T10:44:21.935Z,38.28
2023-06-29T10:45:21.871Z,39.01
2023-06-29T10:46:21.883Z,38.95
2023-06-29T10:47:21.936Z,39.13
2023-06-29T10:48:38.489Z,38.76
2023-06-29T10:49:22.890Z,39.16
2023-06-29T10:50:21.830Z,39.38
2023-06-29T10:51:21.830Z,39.67
2023-06-29T10:52:22.063Z,39.72
2023-06-29T10:53:21.786Z,39.43
2023-06-29T10:54:21.804Z,39.55
2023-06-29T10:55:21.809Z,39.63
2023-06-29T10:56:21.818Z,39.35
2023-06-29T10:57:21.775Z,38.90
2023-06-29T10:58:21.746Z,39.04
2023-06-29T10:59:21.821Z,39.04
2023-06-29T11:00:21.748Z,38.74
2023-06-29T11:01:21.768Z,38.69
2023-06-29T11:02:22.950Z,39.09
2023-06-29T11:03:21.749Z,39.63
2023-06-29T11:04:21.893Z,40.15
2023-06-29T11:05:21.722Z,40.45
2023-06-29T11:07:22.736Z,40.10
2023-06-29T11:08:21.654Z,38.98
2023-06-29T11:09:21.695Z,38.52
2023-06-29T11:10:21.709Z,38.44
2023-06-29T11:11:21.658Z,38.46
2023-06-29T11:12:21.654Z,38.38
2023-06-29T11:13:21.652Z,37.28
2023-06-29T11:14:21.635Z,36.32
2023-06-29T11:15:21.671Z,35.23
2023-06-29T11:16:21.697Z,34.94
2023-06-29T11:17:21.633Z,34.88
2023-06-29T11:18:21.602Z,35.06
2023-06-29T11:19:21.582Z,35.02
2023-06-29T11:20:21.634Z,35.22
2023-06-29T11:21:21.637Z,35.14
2023-06-29T11:22:21.582Z,35.06
2023-06-29T11:23:21.541Z,35.31
2023-06-29T11:24:21.584Z,35.34
2023-06-29T11:25:21.530Z,35.55
2023-06-29T11:26:21.573Z,35.62
2023-06-29T11:27:21.518Z,35.94
2023-06-29T11:28:21.517Z,36.43
2023-06-29T11:29:21.800Z,36.17
2023-06-29T11:30:21.485Z,36.01
2023-06-29T11:31:21.518Z,35.94
2023-06-29T11:32:21.517Z,35.87
2023-06-29T11:33:33.829Z,35.44
2023-06-29T11:34:22.455Z,34.70
2023-06-29T11:35:22.462Z,34.75
2023-06-29T11:36:21.518Z,34.92
2023-06-29T11:37:23.844Z,34.84
2023-06-29T11:38:21.502Z,34.89
2023-06-29T11:39:21.442Z,34.82
2023-06-29T11:40:21.413Z,34.81
2023-06-29T11:41:21.412Z,34.88
2023-06-29T11:42:21.395Z,35.00
2023-06-29T11:43:24.166Z,35.37
2023-06-29T11:44:21.409Z,35.80
2023-06-29T11:45:21.335Z,35.82
2023-06-29T11:46:21.448Z,36.07
2023-06-29T11:48:22.344Z,37.62
2023-06-29T11:49:22.943Z,38.00
2023-06-29T11:50:21.360Z,37.89
2023-06-29T11:51:21.297Z,37.41
2023-06-29T11:52:21.318Z,36.65
2023-06-29T11:53:24.351Z,36.15
2023-06-29T11:54:21.273Z,35.60
2023-06-29T11:55:23.801Z,35.29
2023-06-29T11:56:21.249Z,34.34
2023-06-29T11:57:21.245Z,34.24
2023-06-29T11:58:21.281Z,34.28
2023-06-29T11:59:21.267Z,34.16
2023-06-29T12:00:21.286Z,34.10
2023-06-29T12:01:22.677Z,34.13
2023-06-29T12:02:21.277Z,34.27
2023-06-29T12:03:21.307Z,34.30
2023-06-29T12:04:21.376Z,34.39
2023-06-29T12:05:21.193Z,34.31
2023-06-29T12:06:21.173Z,34.00
2023-06-29T12:07:21.253Z,33.51
2023-06-29T12:08:21.244Z,33.00
2023-06-29T12:09:21.146Z,33.07
2023-06-29T12:10:21.179Z,33.11
2023-06-29T12:11:22.950Z,33.03
2023-06-29T12:12:21.160Z,33.23
2023-06-29T12:13:21.169Z,33.38
2023-06-29T12:14:21.098Z,33.41
2023-06-29T12:15:21.158Z,33.54
2023-06-29T12:18:21.380Z,33.63
2023-06-29T12:19:21.249Z,33.71
2023-06-29T12:20:21.271Z,33.82
2023-06-29T12:21:21.364Z,33.91
2023-06-29T12:22:21.017Z,33.86
2023-06-29T12:23:21.006Z,33.72
2023-06-29T12:24:20.985Z,33.41
2023-06-29T12:25:21.000Z,33.34
2023-06-29T12:26:20.962Z,33.45
2023-06-29T12:27:21.006Z,33.38
2023-06-29T12:28:20.992Z,33.12
2023-06-29T12:29:20.932Z,33.09
2023-06-29T12:30:20.956Z,32.84
2023-06-29T12:31:20.946Z,32.84
2023-06-29T12:32:20.996Z,32.88
2023-06-29T12:33:20.929Z,32.72
2023-06-29T12:34:21.105Z,32.63
2023-06-29T12:35:20.866Z,32.51
2023-06-29T12:36:20.851Z,32.57
2023-06-29T12:37:20.888Z,32.56
2023-06-29T12:38:20.844Z,32.69
2023-06-29T12:39:20.945Z,32.88
2023-06-29T12:40:20.854Z,33.00
2023-06-29T12:41:20.804Z,33.11
2023-06-29T12:42:20.798Z,33.11
2023-06-29T12:43:20.809Z,33.11
2023-06-29T12:44:20.760Z,33.11
2023-06-29T12:45:20.805Z,33.06
2023-06-29T12:46:20.749Z,33.07
2023-06-29T12:47:20.806Z,32.97
2023-06-29T12:48:20.790Z,32.75
2023-06-29T12:49:20.766Z,32.38
2023-06-29T12:50:20.778Z,32.28
2023-06-29T12:51:20.725Z,32.18
2023-06-29T12:52:20.711Z,32.13
2023-06-29T12:53:20.709Z,32.01
2023-06-29T12:54:20.686Z,31.93
2023-06-29T12:55:20.694Z,31.96
2023-06-29T12:56:20.711Z,31.99
2023-06-29T12:57:20.630Z,31.95
2023-06-29T12:58:20.620Z,31.86
2023-06-29T12:59:20.615Z,31.72
2023-06-29T13:00:20.623Z,31.72
2023-06-29T13:01:20.653Z,31.78
2023-06-29T13:02:20.683Z,31.86
2023-06-29T13:03:20.670Z,31.86
2023-06-29T13:04:20.683Z,31.78
2023-06-29T13:05:20.586Z,31.76
2023-06-29T13:06:20.530Z,31.72
2023-06-29T13:07:20.646Z,31.73